createdAt,value
2019-04-22T00:00:24.519Z,0
2019-04-22T00:01:04.861Z,0
2019-04-22T00:01:42.171Z,0
2019-04-22T00:02:22.548Z,0
2019-04-22T00:03:06.473Z,0
2019-04-22T00:03:50.539Z,0
2019-04-22T00:04:36.039Z,0
2019-04-22T00:05:13.009Z,0
2019-04-22T00:06:05.135Z,0
2019-04-22T00:06:49.559Z,0
2019-04-22T00:07:28.257Z,0
2019-04-22T00:08:08.374Z,0
2019-04-22T00:08:48.964Z,0
2019-04-22T00:09:30.471Z,0
2019-04-22T00:10:11.351Z,0
2019-04-22T00:10:53.823Z,0
2019-04-22T00:12:13.582Z,0
2019-04-22T00:12:52.727Z,0
2019-04-22T00:13:39.008Z,0
2019-04-22T00:14:05.035Z,0
2019-04-22T00:14:52.337Z,0
2019-04-22T00:15:31.945Z,0
2019-04-22T00:16:14.147Z,0
2019-04-22T00:16:58.309Z,0
2019-04-22T00:17:44.594Z,0
2019-04-22T00:18:19.669Z,0
2019-04-22T00:19:07.675Z,0
2019-04-22T00:19:41.871Z,0
2019-04-22T00:20:14.144Z,0
2019-04-22T00:20:57.810Z,0
2019-04-22T00:21:38.271Z,0
2019-04-22T00:22:21.920Z,0
2019-04-22T00:22:56.265Z,0
2019-04-22T00:23:39.012Z,0
2019-04-22T00:24:16.818Z,0
2019-04-22T00:25:06.881Z,0
2019-04-22T00:25:40.878Z,0
2019-04-22T00:26:22.268Z,0
2019-04-22T00:27:03.529Z,0
2019-04-22T00:28:21.325Z,0
2019-04-22T00:29:09.964Z,0
2019-04-22T00:29:59.080Z,0
2019-04-22T00:30:20.274Z,0
2019-04-22T00:31:01.804Z,0
2019-04-22T00:31:40.187Z,0
2019-04-22T00:32:23.941Z,0
2019-04-22T00:33:02.687Z,0
2019-04-22T00:33:44.925Z,0
2019-04-22T00:34:22.384Z,0
2019-04-22T00:35:05.558Z,0
2019-04-22T00:35:41.171Z,0
2019-04-22T00:36:27.347Z,0
2019-04-22T00:37:07.678Z,0
2019-04-22T00:37:49.073Z,0
2019-04-22T00:38:29.938Z,0
2019-04-22T00:39:14.919Z,0
2019-04-22T00:39:45.964Z,0
2019-04-22T00:40:33.464Z,0
2019-04-22T00:41:11.470Z,0
2019-04-22T00:41:48.514Z,0
2019-04-22T00:42:34.588Z,0
2019-04-22T00:43:13.183Z,0
2019-04-22T00:43:56.439Z,0
2019-04-22T00:44:38.445Z,0
2019-04-22T00:45:18.934Z,0
2019-04-22T00:45:55.307Z,0
2019-04-22T00:46:37.547Z,0
2019-04-22T00:48:00.306Z,0
2019-04-22T00:49:11.632Z,0
2019-04-22T00:49:58.049Z,0
2019-04-22T00:50:12.113Z,0
2019-04-22T00:50:36.881Z,0
2019-04-22T00:51:22.313Z,0
2019-04-22T00:52:03.098Z,0
2019-04-22T00:52:38.582Z,0
2019-04-22T00:53:22.322Z,0
2019-04-22T00:54:00.569Z,0
2019-04-22T00:54:45.418Z,0
2019-04-22T00:55:24.399Z,0
2019-04-22T00:56:00.191Z,0
2019-04-22T00:56:40.459Z,0
2019-04-22T00:57:21.042Z,0
2019-04-22T00:58:01.102Z,0
2019-04-22T00:58:44.752Z,0
2019-04-22T00:59:22.980Z,0
2019-04-22T01:00:05.222Z,0
2019-04-22T01:00:44.104Z,0
2019-04-22T01:01:23.283Z,0
2019-04-22T01:02:06.652Z,0
2019-04-22T01:02:47.507Z,0
2019-04-22T01:03:25.758Z,0
2019-04-22T01:04:12.305Z,0
2019-04-22T01:04:45.758Z,0
2019-04-22T01:05:27.118Z,0
2019-04-22T01:06:09.349Z,0
2019-04-22T01:06:44.068Z,0
2019-04-22T01:07:28.314Z,0
2019-04-22T01:08:12.711Z,0
2019-04-22T01:08:57.635Z,0
2019-04-22T01:09:29.854Z,0
2019-04-22T01:10:11.426Z,0
2019-04-22T01:10:51.984Z,0
2019-04-22T01:11:31.973Z,0
2019-04-22T01:12:13.323Z,0
2019-04-22T01:12:49.558Z,0
2019-04-22T01:13:30.243Z,0
2019-04-22T01:14:12.317Z,0
2019-04-22T01:14:53.643Z,0
2019-04-22T01:15:33.490Z,0
2019-04-22T01:16:16.872Z,0
2019-04-22T01:16:53.586Z,0
2019-04-22T01:17:32.408Z,0
2019-04-22T01:18:09.148Z,0
2019-04-22T01:18:53.405Z,0
2019-04-22T01:19:38.200Z,0
2019-04-22T01:20:29.154Z,0
2019-04-22T01:21:05.419Z,0
2019-04-22T01:22:15.877Z,0
2019-04-22T01:22:51.727Z,0
2019-04-22T01:23:34.218Z,0
2019-04-22T01:24:15.560Z,0
2019-04-22T01:24:55.479Z,0
2019-04-22T01:25:29.277Z,0
2019-04-22T01:26:09.288Z,0
2019-04-22T01:26:53.373Z,0
2019-04-22T01:27:30.562Z,0
2019-04-22T01:28:10.741Z,0
2019-04-22T01:28:49.899Z,0
2019-04-22T01:29:30.238Z,0
2019-04-22T01:30:09.365Z,0
2019-04-22T01:30:45.870Z,0
2019-04-22T01:31:21.736Z,0
2019-04-22T01:31:58.253Z,0
2019-04-22T01:32:43.794Z,0
2019-04-22T01:33:25.850Z,0
2019-04-22T01:34:09.832Z,0
2019-04-22T01:34:52.240Z,0
2019-04-22T01:35:31.997Z,0
2019-04-22T01:36:19.294Z,0
2019-04-22T01:36:57.258Z,0
2019-04-22T01:37:40.323Z,0
2019-04-22T01:38:18.782Z,0
2019-04-22T01:39:01.817Z,0
2019-04-22T01:39:49.584Z,0
2019-04-22T01:40:30.795Z,0
2019-04-22T01:41:14.554Z,0
2019-04-22T01:41:54.242Z,0
2019-04-22T01:42:32.523Z,0
2019-04-22T01:43:16.326Z,0
2019-04-22T01:44:05.474Z,0
2019-04-22T01:44:38.296Z,0
2019-04-22T01:45:17.615Z,0
2019-04-22T01:46:00.560Z,0
2019-04-22T01:47:24.429Z,0
2019-04-22T01:48:02.128Z,0
2019-04-22T01:48:46.454Z,0
2019-04-22T01:49:27.139Z,0
2019-04-22T01:50:06.000Z,0
2019-04-22T01:50:42.627Z,0
2019-04-22T01:51:40.444Z,0
2019-04-22T01:52:11.273Z,0
2019-04-22T01:52:51.888Z,0
2019-04-22T01:53:33.198Z,0
2019-04-22T01:54:11.949Z,0
2019-04-22T01:55:10.175Z,0
2019-04-22T01:55:30.674Z,0
2019-04-22T01:56:13.119Z,0
2019-04-22T01:56:52.255Z,0
2019-04-22T01:57:28.215Z,0
2019-04-22T01:58:05.504Z,0
2019-04-22T01:58:43.761Z,0
2019-04-22T01:59:25.530Z,0
2019-04-22T02:00:04.860Z,0
2019-04-22T02:00:59.072Z,0
2019-04-22T02:01:36.913Z,0
2019-04-22T02:02:16.019Z,0
2019-04-22T02:02:57.130Z,0
2019-04-22T02:03:39.432Z,0
2019-04-22T02:04:17.063Z,0
2019-04-22T02:04:59.279Z,0
2019-04-22T02:05:33.893Z,0
2019-04-22T02:06:21.713Z,0
2019-04-22T02:06:55.515Z,0
2019-04-22T02:07:41.201Z,0
2019-04-22T02:08:23.215Z,0
2019-04-22T02:09:09.230Z,0
2019-04-22T02:10:27.940Z,0
2019-04-22T02:11:00.595Z,0
2019-04-22T02:11:45.309Z,0
2019-04-22T02:12:59.806Z,0
2019-04-22T02:13:42.604Z,0
2019-04-22T02:14:26.729Z,0
2019-04-22T02:15:05.509Z,0
2019-04-22T02:15:47.210Z,0
2019-04-22T02:16:27.171Z,0
2019-04-22T02:17:08.061Z,0
2019-04-22T02:17:44.324Z,0
2019-04-22T02:18:31.420Z,0
2019-04-22T02:19:11.041Z,0
2019-04-22T02:19:52.925Z,0
2019-04-22T02:20:24.810Z,0
2019-04-22T02:21:07.119Z,0
2019-04-22T02:21:48.171Z,0
2019-04-22T02:22:41.463Z,0
2019-04-22T02:23:30.048Z,0
2019-04-22T02:23:53.092Z,0
2019-04-22T02:24:33.116Z,0
2019-04-22T02:25:15.338Z,0
2019-04-22T02:25:55.871Z,0
2019-04-22T02:26:35.285Z,0
2019-04-22T02:27:17.204Z,0
2019-04-22T02:27:54.329Z,0
2019-04-22T02:28:36.310Z,0
2019-04-22T02:29:14.437Z,0
2019-04-22T02:30:49.144Z,0
2019-04-22T02:31:25.388Z,0
2019-04-22T02:33:38.870Z,0
2019-04-22T02:36:16.518Z,0
2019-04-22T02:36:40.797Z,0
2019-04-22T02:38:58.259Z,0
2019-04-22T02:40:08.995Z,0
2019-04-22T02:41:06.505Z,0
2019-04-22T02:41:25.944Z,0
2019-04-22T02:42:51.406Z,0
2019-04-22T02:44:27.773Z,0
2019-04-22T02:44:46.385Z,0
2019-04-22T02:45:36.752Z,0
2019-04-22T02:48:23.567Z,0
2019-04-22T02:49:28.862Z,0
2019-04-22T02:50:53.900Z,0
2019-04-22T02:51:36.392Z,0
2019-04-22T02:52:17.410Z,0
2019-04-22T02:52:49.491Z,0
2019-04-22T02:54:29.148Z,0
2019-04-22T02:55:06.640Z,0
2019-04-22T02:55:40.556Z,0
2019-04-22T02:56:26.757Z,0
2019-04-22T02:56:52.766Z,0
2019-04-22T02:57:46.839Z,0
2019-04-22T02:58:25.391Z,0
2019-04-22T02:59:39.040Z,0
2019-04-22T03:01:04.886Z,0
2019-04-22T03:02:27.997Z,0
2019-04-22T03:06:05.063Z,0
2019-04-22T03:14:11.181Z,0
2019-04-22T03:14:59.245Z,0
2019-04-22T03:15:58.978Z,0
2019-04-22T03:16:37.416Z,0
2019-04-22T03:18:00.414Z,0
2019-04-22T03:19:33.766Z,0
2019-04-22T03:20:41.041Z,0
2019-04-22T03:21:17.334Z,0
2019-04-22T03:21:59.724Z,0
2019-04-22T03:22:45.508Z,0
2019-04-22T03:23:45.035Z,0
2019-04-22T03:25:13.875Z,0
2019-04-22T03:26:11.169Z,0
2019-04-22T03:26:48.177Z,0
2019-04-22T03:27:34.623Z,0
2019-04-22T03:27:58.078Z,0
2019-04-22T03:28:54.584Z,0
2019-04-22T03:29:27.861Z,0
2019-04-22T03:31:43.239Z,0
2019-04-22T03:33:10.513Z,0
2019-04-22T03:33:51.212Z,0
2019-04-22T03:34:54.137Z,0
2019-04-22T03:36:40.997Z,0
2019-04-22T03:37:09.199Z,0
2019-04-22T03:37:31.661Z,0
2019-04-22T03:39:03.506Z,0
2019-04-22T03:39:50.276Z,0
2019-04-22T03:40:52.420Z,0
2019-04-22T03:41:47.369Z,0
2019-04-22T03:42:09.531Z,0
2019-04-22T03:43:41.935Z,0
2019-04-22T03:44:23.213Z,0
2019-04-22T03:44:59.897Z,0
2019-04-22T03:45:29.953Z,0
2019-04-22T03:46:10.746Z,0
2019-04-22T03:49:09.037Z,0
2019-04-22T03:51:07.283Z,4
2019-04-22T03:51:45.451Z,0
2019-04-22T03:53:03.489Z,0
2019-04-22T03:53:38.065Z,0
2019-04-22T03:54:28.754Z,4
2019-04-22T03:55:01.629Z,0
2019-04-22T03:56:55.821Z,4
2019-04-22T03:57:49.558Z,4
2019-04-22T03:58:20.670Z,0
2019-04-22T03:59:15.974Z,4
2019-04-22T03:59:56.433Z,0
2019-04-22T04:00:42.803Z,4
2019-04-22T04:01:29.360Z,4
2019-04-22T04:02:37.414Z,8
2019-04-22T04:03:06.789Z,8
2019-04-22T04:04:00.117Z,4
2019-04-22T04:04:36.655Z,8
2019-04-22T04:05:21.488Z,8
2019-04-22T04:05:52.354Z,12
2019-04-22T04:06:49.496Z,8
2019-04-22T04:07:30.174Z,12
2019-04-22T04:08:03.336Z,12
2019-04-22T04:08:32.633Z,12
2019-04-22T04:09:23.563Z,16
2019-04-22T04:09:57.983Z,20
2019-04-22T04:10:52.585Z,20
2019-04-22T04:11:23.126Z,24
2019-04-22T04:12:12.086Z,24
2019-04-22T04:12:55.957Z,24
2019-04-22T04:13:22.748Z,28
2019-04-22T04:14:45.852Z,36
2019-04-22T04:15:29.760Z,40
2019-04-22T04:15:54.899Z,44
2019-04-22T04:16:47.482Z,48
2019-04-22T04:18:55.892Z,68
2019-04-22T04:19:43.017Z,76
2019-04-22T04:21:12.288Z,84
2019-04-22T04:21:32.686Z,96
2019-04-22T04:22:07.631Z,100
2019-04-22T04:22:58.452Z,108
2019-04-22T04:24:21.940Z,128
2019-04-22T04:25:05.128Z,136
2019-04-22T04:26:16.387Z,160
2019-04-22T04:26:54.631Z,176
2019-04-22T05:09:00.616Z,4736
2019-04-22T05:09:32.133Z,4832
2019-04-22T05:10:33.353Z,4820
2019-04-22T05:11:34.701Z,5444
2019-04-22T05:12:11.574Z,5504
2019-04-22T05:12:56.489Z,5740
2019-04-22T05:13:32.061Z,5908
2019-04-22T05:14:09.086Z,6032
2019-04-22T05:14:45.962Z,5892
2019-04-22T05:16:24.164Z,6640
2019-04-22T05:17:34.687Z,6740
2019-04-22T05:18:12.097Z,6932
2019-04-22T05:18:50.331Z,7136
2019-04-22T05:19:46.301Z,7348
2019-04-22T05:20:31.779Z,7428
2019-04-22T05:20:59.350Z,7716
2019-04-22T05:21:46.765Z,7808
2019-04-22T05:22:27.801Z,7832
2019-04-22T05:22:57.474Z,7960
2019-04-22T05:23:37.026Z,8024
2019-04-22T05:24:16.211Z,7968
2019-04-22T05:24:50.512Z,8004
2019-04-22T05:25:26.381Z,7908
2019-04-22T05:26:19.960Z,7116
2019-04-22T05:26:56.530Z,6328
2019-04-22T05:27:39.331Z,6152
2019-04-22T05:28:14.879Z,6780
2019-04-22T05:28:57.152Z,6712
2019-04-22T05:29:46.211Z,6096
2019-04-22T05:30:53.307Z,7832
2019-04-22T05:31:37.011Z,8184
2019-04-22T05:32:16.277Z,8844
2019-04-22T05:32:54.010Z,9820
2019-04-22T05:33:34.658Z,10084
2019-04-22T05:34:59.214Z,10300
2019-04-22T05:35:37.353Z,10796
2019-04-22T05:36:20.137Z,11136
2019-04-22T05:37:00.482Z,10812
2019-04-22T05:37:39.854Z,10668
2019-04-22T05:38:25.580Z,10716
2019-04-22T05:39:42.259Z,10368
2019-04-22T05:40:22.814Z,10772
2019-04-22T05:41:02.091Z,11168
2019-04-22T05:41:47.949Z,10952
2019-04-22T05:42:22.637Z,9248
2019-04-22T05:43:20.935Z,7780
2019-04-22T05:44:02.627Z,6736
2019-04-22T05:44:40.717Z,6884
2019-04-22T05:46:02.368Z,7884
2019-04-22T05:46:47.349Z,8252
2019-04-22T05:47:31.810Z,8712
2019-04-22T05:48:09.208Z,8484
2019-04-22T05:48:58.523Z,8024
2019-04-22T05:49:28.544Z,7432
2019-04-22T05:50:12.852Z,7240
2019-04-22T05:50:56.010Z,7520
2019-04-22T05:51:36.565Z,7752
2019-04-22T05:52:20.045Z,7276
2019-04-22T05:53:19.334Z,7268
2019-04-22T05:53:47.367Z,7304
2019-04-22T05:54:32.547Z,7440
2019-04-22T05:55:20.983Z,7788
2019-04-22T05:56:01.360Z,7964
2019-04-22T05:56:39.177Z,8272
2019-04-22T06:02:30.239Z,8156
2019-04-22T06:03:20.416Z,7896
2019-04-22T06:04:05.137Z,8804
2019-04-22T06:04:29.182Z,11040
2019-04-22T06:05:30.139Z,13600
2019-04-22T06:05:54.653Z,14624
2019-04-22T06:06:35.188Z,15616
2019-04-22T06:07:12.946Z,16160
2019-04-22T06:07:59.996Z,16064
2019-04-22T06:08:39.811Z,14976
2019-04-22T06:09:24.139Z,16096
2019-04-22T06:10:03.917Z,17248
2019-04-22T06:11:25.459Z,16928
2019-04-22T06:11:58.460Z,16576
2019-04-22T06:12:38.764Z,16032
2019-04-22T06:13:17.521Z,16640
2019-04-22T06:14:00.760Z,16544
2019-04-22T06:14:46.984Z,17088
2019-04-22T06:15:23.210Z,16544
2019-04-22T06:16:01.694Z,16800
2019-04-22T06:16:50.082Z,16672
2019-04-22T06:17:37.570Z,15968
2019-04-22T06:18:15.800Z,15904
2019-04-22T06:18:56.266Z,15936
2019-04-22T06:19:31.132Z,17920
2019-04-22T06:20:14.894Z,18208
2019-04-22T06:20:58.942Z,18560
2019-04-22T06:21:36.886Z,18624
2019-04-22T06:28:53.084Z,22656
2019-04-22T06:29:29.679Z,22560
2019-04-22T06:30:20.432Z,22048
2019-04-22T06:31:02.295Z,21920
2019-04-22T06:31:55.803Z,20992
2019-04-22T06:33:09.274Z,21376
2019-04-22T06:33:54.250Z,20800
2019-04-22T06:34:35.546Z,19104
2019-04-22T06:35:16.296Z,17472
2019-04-22T06:36:35.747Z,16288
2019-04-22T06:37:17.277Z,16416
2019-04-22T06:38:15.812Z,16736
2019-04-22T06:48:34.107Z,16032
2019-04-22T06:49:22.405Z,15712
2019-04-22T06:49:58.518Z,15776
2019-04-22T06:51:26.793Z,14272
2019-04-22T06:52:13.616Z,14720
2019-04-22T06:52:51.358Z,14912
2019-04-22T06:53:34.220Z,14172
2019-04-22T06:54:13.798Z,13428
2019-04-22T06:54:54.122Z,13312
2019-04-22T06:55:35.289Z,13576
2019-04-22T06:56:15.397Z,13232
2019-04-22T06:56:54.538Z,13536
2019-04-22T06:57:36.167Z,14336
2019-04-22T06:58:14.894Z,15328
2019-04-22T06:58:57.508Z,15680
2019-04-22T06:59:36.091Z,15424
2019-04-22T07:00:17.044Z,15648
2019-04-22T07:01:02.773Z,16032
2019-04-22T07:01:41.889Z,16448
2019-04-22T07:03:34.492Z,16800
2019-04-22T07:03:56.752Z,16480
2019-04-22T07:04:26.790Z,15936
2019-04-22T07:05:27.307Z,15680
2019-04-22T07:05:51.375Z,15776
2019-04-22T07:06:25.920Z,15008
2019-04-22T07:07:12.056Z,14008
2019-04-22T07:07:44.476Z,12384
2019-04-22T07:10:06.229Z,12380
2019-04-22T07:11:10.760Z,12572
2019-04-22T07:11:18.019Z,12816
2019-04-22T07:12:48.395Z,13000
2019-04-22T07:13:33.952Z,12796
2019-04-22T07:14:48.282Z,12328
2019-04-22T07:16:10.906Z,12048
2019-04-22T07:16:50.904Z,12136
2019-04-22T07:17:35.373Z,12064
2019-04-22T07:18:17.708Z,12168
2019-04-22T07:19:07.181Z,12252
2019-04-22T07:20:17.137Z,12140
2019-04-22T07:20:56.181Z,11952
2019-04-22T07:21:36.634Z,11088
2019-04-22T07:22:21.356Z,9400
2019-04-22T07:23:01.751Z,7868
2019-04-22T07:23:46.876Z,6888
2019-04-22T07:25:02.959Z,6292
2019-04-22T07:25:57.743Z,6164
2019-04-22T07:26:28.877Z,6028
2019-04-22T07:27:04.471Z,5828
2019-04-22T07:27:45.660Z,5636
2019-04-22T07:28:36.898Z,5560
2019-04-22T07:29:07.308Z,5484
2019-04-22T07:29:55.195Z,5512
2019-04-22T07:30:31.053Z,5580
2019-04-22T07:31:10.130Z,5616
2019-04-22T07:31:54.293Z,5532
2019-04-22T07:32:53.007Z,5444
2019-04-22T07:33:57.853Z,5308
2019-04-22T07:34:38.771Z,5284
2019-04-22T07:35:21.888Z,5192
2019-04-22T07:36:22.165Z,5124
2019-04-22T07:37:27.217Z,4920
2019-04-22T07:38:04.249Z,4820
2019-04-22T07:38:35.476Z,4792
2019-04-22T07:39:22.876Z,4728
2019-04-22T07:40:01.270Z,4584
2019-04-22T07:40:49.986Z,4464
2019-04-22T07:41:26.895Z,4384
2019-04-22T07:42:05.071Z,4316
2019-04-22T07:42:47.890Z,4240
2019-04-22T07:43:39.586Z,4168
2019-04-22T07:44:23.960Z,4124
2019-04-22T07:44:49.414Z,4084
2019-04-22T07:45:29.090Z,4044
2019-04-22T07:46:06.670Z,3960
2019-04-22T07:46:56.110Z,3940
2019-04-22T07:47:30.994Z,3892
2019-04-22T07:48:18.647Z,3872
2019-04-22T07:48:51.468Z,3844
2019-04-22T07:50:25.143Z,3768
2019-04-22T07:51:32.511Z,3688
2019-04-22T07:52:15.688Z,3676
2019-04-22T07:52:51.219Z,3632
2019-04-22T07:53:33.293Z,3596
2019-04-22T07:54:12.998Z,3568
2019-04-22T07:54:56.711Z,3540
2019-04-22T07:55:32.023Z,3492
2019-04-22T07:56:17.986Z,3504
2019-04-22T07:56:59.555Z,3436
2019-04-22T07:58:18.123Z,3384
2019-04-22T07:58:55.107Z,3352
2019-04-22T07:59:33.714Z,3332
2019-04-22T08:01:01.790Z,3272
2019-04-22T08:01:35.175Z,3256
2019-04-22T08:02:23.488Z,3232
2019-04-22T08:03:06.074Z,3212
2019-04-22T08:03:51.111Z,3184
2019-04-22T08:04:34.268Z,3168
2019-04-22T08:05:18.223Z,3140
2019-04-22T08:05:51.300Z,3124
2019-04-22T08:06:23.065Z,3104
2019-04-22T08:07:48.726Z,3064
2019-04-22T08:08:28.601Z,3044
2019-04-22T08:09:13.661Z,3024
2019-04-22T08:09:59.321Z,3000
2019-04-22T08:10:36.640Z,2984
2019-04-22T08:11:29.719Z,2972
2019-04-22T08:11:52.155Z,2928
2019-04-22T08:13:10.956Z,2896
2019-04-22T08:13:51.072Z,2892
2019-04-22T08:14:34.266Z,2876
2019-04-22T08:15:12.306Z,2848
2019-04-22T08:16:09.634Z,2832
2019-04-22T08:16:36.413Z,2828
2019-04-22T08:17:38.306Z,2816
2019-04-22T08:18:01.361Z,2800
2019-04-22T08:18:53.832Z,2788
2019-04-22T08:19:19.956Z,2780
2019-04-22T08:20:02.236Z,2780
2019-04-22T08:20:40.215Z,2760
2019-04-22T08:21:15.086Z,2740
2019-04-22T08:22:42.513Z,2716
2019-04-22T08:23:23.585Z,2704
2019-04-22T08:24:01.035Z,2692
2019-04-22T08:24:46.992Z,2668
2019-04-22T08:25:24.389Z,2652
2019-04-22T08:26:00.624Z,2648
2019-04-22T08:26:45.016Z,2640
2019-04-22T08:27:22.209Z,2616
2019-04-22T08:28:02.843Z,2604
2019-04-22T08:29:36.665Z,2576
2019-04-22T08:30:47.292Z,2544
2019-04-22T08:31:28.089Z,2536
2019-04-22T08:32:04.466Z,2524
2019-04-22T08:32:45.332Z,2508
2019-04-22T08:33:33.192Z,2492
2019-04-22T08:34:13.542Z,2476
2019-04-22T08:34:46.802Z,2468
2019-04-22T08:35:51.954Z,2456
2019-04-22T08:36:17.314Z,2448
2019-04-22T08:37:23.751Z,2436
2019-04-22T08:37:47.216Z,2424
2019-04-22T08:38:14.423Z,2420
2019-04-22T08:39:13.408Z,2404
2019-04-22T08:39:40.080Z,2392
2019-04-22T08:40:19.808Z,2388
2019-04-22T08:41:04.576Z,2380
2019-04-22T08:41:37.033Z,2364
2019-04-22T08:42:25.905Z,2364
2019-04-22T08:43:12.415Z,2352
2019-04-22T08:43:52.248Z,2348
2019-04-22T08:44:27.447Z,2336
2019-04-22T08:45:08.933Z,2320
2019-04-22T08:45:49.545Z,2320
2019-04-22T08:47:10.631Z,2304
2019-04-22T08:47:47.695Z,2292
2019-04-22T08:48:28.987Z,2288
2019-04-22T08:49:05.234Z,2280
2019-04-22T08:49:56.167Z,2280
2019-04-22T08:50:26.499Z,2268
2019-04-22T08:51:08.361Z,2264
2019-04-22T08:51:48.474Z,2264
2019-04-22T08:53:13.977Z,2256
2019-04-22T08:55:17.060Z,2232
2019-04-22T08:56:04.444Z,2228
2019-04-22T08:57:17.899Z,2220
2019-04-22T08:58:14.572Z,2216
2019-04-22T08:58:39.455Z,2212
2019-04-22T08:59:14.779Z,2200
2019-04-22T09:00:01.907Z,2196
2019-04-22T09:00:43.440Z,2184
2019-04-22T09:01:22.334Z,2180
2019-04-22T09:02:06.105Z,2184
2019-04-22T09:02:46.497Z,2180
2019-04-22T09:03:23.708Z,2180
2019-04-22T09:04:01.719Z,2168
2019-04-22T09:04:41.910Z,2168
2019-04-22T09:05:36.644Z,2156
2019-04-22T09:06:10.808Z,2156
2019-04-22T09:07:01.015Z,2152
2019-04-22T09:07:27.922Z,2148
2019-04-22T09:08:07.186Z,2140
2019-04-22T09:08:53.706Z,2132
2019-04-22T09:09:31.042Z,2132
2019-04-22T09:10:09.811Z,2140
2019-04-22T09:10:48.135Z,2132
2019-04-22T09:11:34.807Z,2128
2019-04-22T09:12:13.877Z,2112
2019-04-22T09:13:34.980Z,2108
2019-04-22T09:14:15.462Z,2100
2019-04-22T09:14:48.877Z,2096
2019-04-22T09:15:41.563Z,2096
2019-04-22T09:16:26.146Z,2092
2019-04-22T09:16:54.246Z,2092
2019-04-22T09:17:39.405Z,2092
2019-04-22T09:18:21.501Z,2084
2019-04-22T09:18:59.095Z,2084
2019-04-22T09:19:40.211Z,2084
2019-04-22T09:20:20.267Z,2080
2019-04-22T09:21:45.291Z,2072
2019-04-22T09:22:21.026Z,2068
2019-04-22T09:23:07.070Z,2064
2019-04-22T09:23:52.080Z,2064
2019-04-22T09:24:29.023Z,2060
2019-04-22T09:24:59.888Z,2052
2019-04-22T09:25:48.329Z,2056
2019-04-22T09:27:17.723Z,2052
2019-04-22T09:27:49.388Z,2060
2019-04-22T09:28:37.503Z,2040
2019-04-22T09:29:20.575Z,2036
2019-04-22T09:29:48.916Z,2040
2019-04-22T09:31:10.924Z,2016
2019-04-22T09:32:00.138Z,2016
2019-04-22T09:33:07.681Z,2020
2019-04-22T09:33:52.731Z,2016
2019-04-22T09:34:39.585Z,2008
2019-04-22T09:35:15.431Z,1996
2019-04-22T09:36:08.785Z,2000
2019-04-22T09:36:40.516Z,1992
2019-04-22T09:37:26.658Z,1984
2019-04-22T09:38:10.385Z,1980
2019-04-22T09:38:40.886Z,1980
2019-04-22T09:39:20.897Z,1980
2019-04-22T09:40:04.342Z,1976
2019-04-22T09:41:05.225Z,1960
2019-04-22T09:41:26.949Z,1972
2019-04-22T09:42:04.569Z,1964
2019-04-22T09:42:43.554Z,1956
2019-04-22T09:44:01.954Z,1964
2019-04-22T09:44:47.009Z,1948
2019-04-22T09:45:21.023Z,1940
2019-04-22T09:46:05.990Z,1936
2019-04-22T09:46:46.633Z,1940
2019-04-22T09:48:08.104Z,1936
2019-04-22T09:48:49.993Z,1948
2019-04-22T09:49:36.373Z,1928
2019-04-22T09:50:14.872Z,1920
2019-04-22T09:50:51.738Z,1932
2019-04-22T09:51:30.552Z,1944
2019-04-22T09:52:27.569Z,1916
2019-04-22T09:52:53.008Z,1916
2019-04-22T09:53:35.905Z,1916
2019-04-22T09:54:21.478Z,1904
2019-04-22T09:54:59.378Z,1908
2019-04-22T09:55:33.984Z,1900
2019-04-22T09:56:17.223Z,1884
2019-04-22T09:56:54.845Z,1892
2019-04-22T09:57:37.348Z,1880
2019-04-22T09:58:15.817Z,1876
2019-04-22T09:58:54.966Z,1868
2019-04-22T09:59:42.916Z,1872
2019-04-22T10:00:37.238Z,1872
2019-04-22T10:01:02.458Z,1872
2019-04-22T10:03:44.156Z,1848
2019-04-22T10:04:17.833Z,1848
2019-04-22T10:05:07.384Z,1844
2019-04-22T10:05:49.655Z,1840
2019-04-22T10:06:27.630Z,1836
2019-04-22T10:06:59.373Z,1832
2019-04-22T10:07:44.499Z,1828
2019-04-22T10:08:31.449Z,1824
2019-04-22T10:09:25.764Z,1824
2019-04-22T10:10:26.659Z,1812
2019-04-22T10:11:03.818Z,1816
2019-04-22T10:11:43.456Z,1804
2019-04-22T10:12:31.455Z,1808
2019-04-22T10:13:11.900Z,1808
2019-04-22T10:13:53.404Z,1800
2019-04-22T10:14:30.603Z,1788
2019-04-22T10:15:04.838Z,1796
2019-04-22T10:15:54.218Z,1792
2019-04-22T10:17:12.173Z,1788
2019-04-22T10:17:49.288Z,1788
2019-04-22T10:18:31.723Z,1776
2019-04-22T10:19:52.844Z,1772
2019-04-22T10:20:37.667Z,1772
2019-04-22T10:21:14.277Z,1760
2019-04-22T10:22:10.277Z,1756
2019-04-22T10:22:39.203Z,1748
2019-04-22T10:23:18.643Z,1752
2019-04-22T10:23:57.833Z,1744
2019-04-22T10:24:31.767Z,1744
2019-04-22T10:25:16.130Z,1728
2019-04-22T10:25:56.969Z,1736
2019-04-22T10:26:38.723Z,1716
2019-04-22T10:27:20.145Z,1728
2019-04-22T10:28:44.250Z,1724
2019-04-22T10:29:24.211Z,1720
2019-04-22T11:10:15.329Z,1528
2019-04-22T11:10:54.080Z,1520
2019-04-22T11:11:32.016Z,1536
2019-04-22T11:12:09.066Z,1520
2019-04-22T11:12:43.269Z,1460
2019-04-22T11:13:24.132Z,1440
2019-04-22T11:14:04.183Z,1452
2019-04-22T11:14:43.455Z,1460
2019-04-22T11:15:24.415Z,1424
2019-04-22T11:16:05.331Z,1484
2019-04-22T11:16:45.510Z,1476
2019-04-22T11:17:25.974Z,1488
2019-04-22T11:18:05.390Z,1468
2019-04-22T11:18:47.371Z,1448
2019-04-22T11:19:27.714Z,1476
2019-04-22T11:20:07.923Z,1472
2019-04-22T11:20:49.519Z,1460
2019-04-22T11:21:29.706Z,1460
2019-04-22T11:22:18.505Z,1448
2019-04-22T11:22:53.033Z,1432
2019-04-22T11:23:32.576Z,1400
2019-04-22T11:24:12.918Z,1392
2019-04-22T11:24:54.742Z,1336
2019-04-22T11:25:34.032Z,1364
2019-04-22T11:26:15.413Z,1388
2019-04-22T11:26:54.906Z,1408
2019-04-22T11:27:34.991Z,1416
2019-04-22T11:28:15.967Z,1432
2019-04-22T11:28:56.054Z,1440
2019-04-22T11:29:39.271Z,1432
2019-04-22T11:30:22.704Z,1436
2019-04-22T11:31:00.743Z,1440
2019-04-22T11:31:39.925Z,1420
2019-04-22T11:32:20.341Z,1428
2019-04-22T11:33:00.707Z,1404
2019-04-22T11:33:42.674Z,1436
2019-04-22T11:34:21.603Z,1452
2019-04-22T11:35:03.759Z,1452
2019-04-22T11:35:44.004Z,1456
2019-04-22T11:36:27.238Z,1460
2019-04-22T11:37:05.274Z,1472
2019-04-22T11:37:46.463Z,1464
2019-04-22T11:38:26.728Z,1452
2019-04-22T11:39:09.244Z,1452
2019-04-22T11:39:48.064Z,1456
2019-04-22T11:40:34.443Z,1452
2019-04-22T11:41:07.346Z,1460
2019-04-22T11:41:47.520Z,1440
2019-04-22T11:42:30.070Z,1432
2019-04-22T11:43:10.284Z,1444
2019-04-22T11:43:51.307Z,1472
2019-04-22T11:44:32.956Z,1480
2019-04-22T11:45:13.249Z,1480
2019-04-22T11:45:53.502Z,1480
2019-04-22T11:46:33.799Z,1484
2019-04-22T11:47:17.140Z,1480
2019-04-22T11:47:57.229Z,1488
2019-04-22T11:48:38.003Z,1484
2019-04-22T11:49:18.173Z,1488
2019-04-22T11:49:57.816Z,1472
2019-04-22T11:50:38.215Z,1476
2019-04-22T11:51:19.900Z,1472
2019-04-22T11:51:59.101Z,1468
2019-04-22T11:52:40.593Z,1472
2019-04-22T11:53:20.675Z,1468
2019-04-22T11:54:01.045Z,1464
2019-04-22T11:54:41.235Z,1472
2019-04-22T11:55:22.364Z,1464
2019-04-22T11:56:02.629Z,1464
2019-04-22T11:56:43.030Z,1468
2019-04-22T11:57:25.324Z,1460
2019-04-22T11:58:04.441Z,1464
2019-04-22T11:58:44.857Z,1460
2019-04-22T11:59:26.692Z,1452
2019-04-22T12:00:09.018Z,1460
2019-04-22T12:00:49.352Z,1452
2019-04-22T12:01:28.721Z,1456
2019-04-22T12:02:11.018Z,1444
2019-04-22T12:02:51.141Z,1452
2019-04-22T12:03:31.611Z,1452
2019-04-22T12:04:11.750Z,1448
2019-04-22T12:04:51.887Z,1452
2019-04-22T12:05:32.214Z,1352
2019-04-22T12:06:13.434Z,1388
2019-04-22T12:06:54.129Z,1440
2019-04-22T12:07:36.328Z,1432
2019-04-22T12:08:15.437Z,1432
2019-04-22T12:08:57.523Z,1432
2019-04-22T12:09:37.518Z,1436
2019-04-22T12:10:27.126Z,1420
2019-04-22T12:11:00.831Z,1428
2019-04-22T12:11:38.511Z,1428
2019-04-22T12:12:18.279Z,1424
2019-04-22T12:12:59.831Z,1420
2019-04-22T12:13:39.907Z,1416
2019-04-22T12:14:20.047Z,1412
2019-04-22T12:15:01.734Z,1420
2019-04-22T12:15:42.735Z,1416
2019-04-22T12:16:23.288Z,1416
2019-04-22T12:17:03.543Z,1396
2019-04-22T12:17:44.496Z,1404
2019-04-22T12:18:24.895Z,1404
2019-04-22T12:19:05.021Z,1404
2019-04-22T12:19:46.263Z,1392
2019-04-22T12:20:25.478Z,1384
2019-04-22T12:21:05.538Z,1380
2019-04-22T12:21:46.809Z,1384
2019-04-22T12:22:26.940Z,1380
2019-04-22T12:23:07.361Z,1380
2019-04-22T12:23:48.596Z,1376
2019-04-22T12:24:28.082Z,1376
2019-04-22T12:25:08.178Z,1372